Magnolia, Massachusetts
Current Conditions -  °F | °C
As of 4:33 PM on Thursday 23 Oct 2014 (Local Time) from KBVY Reporting Station
Light Rain Light Rain  
Wind Chill: 53°   Ceiling: 600
Heat Index: 53°   Visibility: 1.2mi
Dew Point: 50°   Wind: 18mph
Humidity: 89%   Direction: 20°NNE
Pressure: 29.61"   Gusts: 39mph
Location:  42.6166°N, 70.7157°W
Report Text: KBVY 232033Z AUTO 02016G34KT 1 1/4SM -RA BR OVC006 12/10 A2961 RMK AO2 PK WND 03034/2024 P0002 T01170100
Loading
Personal Weather Stations






























Interactive Weather Map
Tropical Storm Tracking
New forecast layout! Learn more

10-Day Weather Forecast

Advertisements
Track Severe Weather on mobile